sensor_id;sensor_type;location;lat;lon;timestamp;P1;durP1;ratioP1;P2;durP2;ratioP2
64598;SDS011;51008;51.504;11.548;2023-04-23T00:05:01;9.15;;;3.88;;
64598;SDS011;51008;51.504;11.548;2023-04-23T00:10:04;8.32;;;3.95;;
64598;SDS011;51008;51.504;11.548;2023-04-23T00:15:06;6.88;;;3.70;;
64598;SDS011;51008;51.504;11.548;2023-04-23T00:20:07;11.98;;;3.78;;
64598;SDS011;51008;51.504;11.548;2023-04-23T00:25:09;6.60;;;3.75;;
64598;SDS011;51008;51.504;11.548;2023-04-23T00:30:10;8.85;;;4.20;;
64598;SDS011;51008;51.504;11.548;2023-04-23T00:35:12;6.35;;;3.92;;
64598;SDS011;51008;51.504;11.548;2023-04-23T00:40:12;9.55;;;4.05;;
64598;SDS011;51008;51.504;11.548;2023-04-23T00:45:14;9.85;;;4.47;;
64598;SDS011;51008;51.504;11.548;2023-04-23T00:50:15;11.40;;;4.32;;
64598;SDS011;51008;51.504;11.548;2023-04-23T00:55:16;6.03;;;3.50;;
64598;SDS011;51008;51.504;11.548;2023-04-23T01:00:17;10.05;;;4.10;;
64598;SDS011;51008;51.504;11.548;2023-04-23T01:05:19;9.00;;;3.50;;
64598;SDS011;51008;51.504;11.548;2023-04-23T01:10:22;7.00;;;3.87;;
64598;SDS011;51008;51.504;11.548;2023-04-23T01:15:23;7.70;;;3.67;;
64598;SDS011;51008;51.504;11.548;2023-04-23T01:20:24;8.90;;;3.65;;
64598;SDS011;51008;51.504;11.548;2023-04-23T01:25:25;8.23;;;3.22;;
64598;SDS011;51008;51.504;11.548;2023-04-23T01:30:26;7.50;;;3.75;;
64598;SDS011;51008;51.504;11.548;2023-04-23T01:35:28;8.85;;;3.92;;
64598;SDS011;51008;51.504;11.548;2023-04-23T01:40:30;6.78;;;3.70;;
64598;SDS011;51008;51.504;11.548;2023-04-23T01:45:31;11.50;;;3.63;;
64598;SDS011;51008;51.504;11.548;2023-04-23T01:50:32;7.65;;;3.75;;
64598;SDS011;51008;51.504;11.548;2023-04-23T01:55:33;6.82;;;3.88;;
64598;SDS011;51008;51.504;11.548;2023-04-23T02:00:39;7.18;;;3.80;;
64598;SDS011;51008;51.504;11.548;2023-04-23T02:05:40;7.07;;;3.80;;
64598;SDS011;51008;51.504;11.548;2023-04-23T02:10:42;7.10;;;3.83;;
64598;SDS011;51008;51.504;11.548;2023-04-23T02:15:43;6.05;;;3.67;;
64598;SDS011;51008;51.504;11.548;2023-04-23T02:20:44;9.35;;;4.43;;
64598;SDS011;51008;51.504;11.548;2023-04-23T02:25:45;8.93;;;4.25;;
64598;SDS011;51008;51.504;11.548;2023-04-23T02:30:46;10.60;;;4.07;;
64598;SDS011;51008;51.504;11.548;2023-04-23T02:35:47;10.02;;;4.18;;
64598;SDS011;51008;51.504;11.548;2023-04-23T02:40:48;7.18;;;4.00;;
64598;SDS011;51008;51.504;11.548;2023-04-23T02:45:49;7.43;;;4.15;;
64598;SDS011;51008;51.504;11.548;2023-04-23T02:50:50;9.02;;;4.13;;
64598;SDS011;51008;51.504;11.548;2023-04-23T02:55:51;8.57;;;4.63;;
64598;SDS011;51008;51.504;11.548;2023-04-23T03:00:52;7.57;;;4.10;;
64598;SDS011;51008;51.504;11.548;2023-04-23T03:05:53;8.98;;;4.20;;
64598;SDS011;51008;51.504;11.548;2023-04-23T03:10:54;7.25;;;4.32;;
64598;SDS011;51008;51.504;11.548;2023-04-23T03:15:55;11.93;;;4.75;;
64598;SDS011;51008;51.504;11.548;2023-04-23T03:20:56;12.63;;;4.97;;
64598;SDS011;51008;51.504;11.548;2023-04-23T03:25:57;6.72;;;4.28;;
64598;SDS011;51008;51.504;11.548;2023-04-23T03:30:58;12.20;;;4.93;;
64598;SDS011;51008;51.504;11.548;2023-04-23T03:35:59;10.52;;;4.75;;
64598;SDS011;51008;51.504;11.548;2023-04-23T03:41:04;9.30;;;4.88;;
64598;SDS011;51008;51.504;11.548;2023-04-23T03:46:06;9.05;;;4.90;;
64598;SDS011;51008;51.504;11.548;2023-04-23T03:51:11;9.38;;;4.70;;
64598;SDS011;51008;51.504;11.548;2023-04-23T03:56:21;7.72;;;4.32;;
64598;SDS011;51008;51.504;11.548;2023-04-23T04:01:33;8.38;;;4.53;;
64598;SDS011;51008;51.504;11.548;2023-04-23T04:06:34;8.80;;;4.85;;
64598;SDS011;51008;51.504;11.548;2023-04-23T04:11:35;9.00;;;4.43;;
64598;SDS011;51008;51.504;11.548;2023-04-23T04:16:36;7.32;;;4.53;;
64598;SDS011;51008;51.504;11.548;2023-04-23T04:21:37;6.78;;;3.80;;
64598;SDS011;51008;51.504;11.548;2023-04-23T04:26:38;7.65;;;3.85;;
64598;SDS011;51008;51.504;11.548;2023-04-23T04:31:39;9.43;;;3.70;;
64598;SDS011;51008;51.504;11.548;2023-04-23T04:36:40;6.60;;;3.65;;
64598;SDS011;51008;51.504;11.548;2023-04-23T04:41:41;6.20;;;3.90;;
64598;SDS011;51008;51.504;11.548;2023-04-23T04:46:42;7.22;;;4.10;;
64598;SDS011;51008;51.504;11.548;2023-04-23T04:51:43;7.68;;;4.53;;
64598;SDS011;51008;51.504;11.548;2023-04-23T04:56:44;9.65;;;4.65;;
64598;SDS011;51008;51.504;11.548;2023-04-23T05:01:45;6.22;;;4.28;;
64598;SDS011;51008;51.504;11.548;2023-04-23T05:06:46;7.05;;;4.40;;
64598;SDS011;51008;51.504;11.548;2023-04-23T05:11:47;9.27;;;4.70;;
64598;SDS011;51008;51.504;11.548;2023-04-23T05:16:48;10.23;;;4.88;;
64598;SDS011;51008;51.504;11.548;2023-04-23T05:21:49;9.70;;;5.40;;
64598;SDS011;51008;51.504;11.548;2023-04-23T05:26:50;7.78;;;5.05;;
64598;SDS011;51008;51.504;11.548;2023-04-23T05:31:51;10.75;;;6.13;;
64598;SDS011;51008;51.504;11.548;2023-04-23T05:36:52;6.80;;;4.85;;
64598;SDS011;51008;51.504;11.548;2023-04-23T05:41:53;9.73;;;5.30;;
64598;SDS011;51008;51.504;11.548;2023-04-23T05:46:54;7.82;;;5.88;;
64598;SDS011;51008;51.504;11.548;2023-04-23T05:51:55;8.13;;;5.50;;
64598;SDS011;51008;51.504;11.548;2023-04-23T05:56:56;10.57;;;5.85;;
64598;SDS011;51008;51.504;11.548;2023-04-23T06:01:57;8.10;;;5.60;;
64598;SDS011;51008;51.504;11.548;2023-04-23T06:06:58;9.43;;;6.03;;
64598;SDS011;51008;51.504;11.548;2023-04-23T06:11:59;14.93;;;6.03;;
64598;SDS011;51008;51.504;11.548;2023-04-23T06:17:00;9.32;;;5.88;;
64598;SDS011;51008;51.504;11.548;2023-04-23T06:22:01;8.50;;;5.50;;
64598;SDS011;51008;51.504;11.548;2023-04-23T06:27:02;9.13;;;6.32;;
64598;SDS011;51008;51.504;11.548;2023-04-23T06:32:05;9.48;;;6.00;;
64598;SDS011;51008;51.504;11.548;2023-04-23T06:37:06;9.77;;;5.65;;
64598;SDS011;51008;51.504;11.548;2023-04-23T06:42:07;6.60;;;4.18;;
64598;SDS011;51008;51.504;11.548;2023-04-23T06:47:19;8.23;;;4.78;;
64598;SDS011;51008;51.504;11.548;2023-04-23T06:52:20;8.80;;;4.32;;
64598;SDS011;51008;51.504;11.548;2023-04-23T06:57:21;7.53;;;4.38;;
64598;SDS011;51008;51.504;11.548;2023-04-23T07:02:22;7.32;;;4.85;;
64598;SDS011;51008;51.504;11.548;2023-04-23T07:07:23;8.60;;;4.97;;
64598;SDS011;51008;51.504;11.548;2023-04-23T07:12:23;8.95;;;4.78;;
64598;SDS011;51008;51.504;11.548;2023-04-23T07:17:27;8.80;;;5.28;;
64598;SDS011;51008;51.504;11.548;2023-04-23T07:27:29;9.32;;;5.95;;
64598;SDS011;51008;51.504;11.548;2023-04-23T07:32:30;12.15;;;6.93;;
64598;SDS011;51008;51.504;11.548;2023-04-23T07:37:31;13.43;;;7.10;;
64598;SDS011;51008;51.504;11.548;2023-04-23T07:42:32;11.57;;;7.38;;
64598;SDS011;51008;51.504;11.548;2023-04-23T07:47:33;11.65;;;7.60;;
64598;SDS011;51008;51.504;11.548;2023-04-23T07:52:34;13.10;;;7.57;;
64598;SDS011;51008;51.504;11.548;2023-04-23T07:57:35;11.07;;;6.97;;
64598;SDS011;51008;51.504;11.548;2023-04-23T08:02:36;10.45;;;6.75;;
64598;SDS011;51008;51.504;11.548;2023-04-23T08:07:37;9.55;;;5.78;;
64598;SDS011;51008;51.504;11.548;2023-04-23T08:12:38;7.78;;;5.30;;
64598;SDS011;51008;51.504;11.548;2023-04-23T08:17:39;6.63;;;4.40;;
64598;SDS011;51008;51.504;11.548;2023-04-23T08:22:40;5.57;;;3.70;;
64598;SDS011;51008;51.504;11.548;2023-04-23T08:27:41;6.55;;;4.78;;
64598;SDS011;51008;51.504;11.548;2023-04-23T08:32:42;10.07;;;6.80;;
64598;SDS011;51008;51.504;11.548;2023-04-23T08:37:43;7.68;;;5.15;;
64598;SDS011;51008;51.504;11.548;2023-04-23T08:42:48;12.27;;;6.50;;
64598;SDS011;51008;51.504;11.548;2023-04-23T08:47:52;10.85;;;6.72;;
64598;SDS011;51008;51.504;11.548;2023-04-23T08:52:58;10.52;;;6.75;;
64598;SDS011;51008;51.504;11.548;2023-04-23T08:58:01;11.45;;;5.90;;
64598;SDS011;51008;51.504;11.548;2023-04-23T09:03:05;11.23;;;7.00;;
64598;SDS011;51008;51.504;11.548;2023-04-23T09:08:06;10.48;;;7.22;;
64598;SDS011;51008;51.504;11.548;2023-04-23T09:13:11;14.43;;;10.27;;
64598;SDS011;51008;51.504;11.548;2023-04-23T09:18:12;14.23;;;9.13;;
64598;SDS011;51008;51.504;11.548;2023-04-23T09:23:15;12.50;;;8.30;;
64598;SDS011;51008;51.504;11.548;2023-04-23T09:28:33;8.82;;;5.95;;
64598;SDS011;51008;51.504;11.548;2023-04-23T09:33:35;11.77;;;7.05;;
64598;SDS011;51008;51.504;11.548;2023-04-23T09:38:38;10.60;;;7.13;;
64598;SDS011;51008;51.504;11.548;2023-04-23T09:43:46;13.70;;;6.50;;
64598;SDS011;51008;51.504;11.548;2023-04-23T09:48:47;9.65;;;6.50;;
64598;SDS011;51008;51.504;11.548;2023-04-23T09:53:48;9.93;;;6.65;;
64598;SDS011;51008;51.504;11.548;2023-04-23T09:58:49;8.23;;;5.40;;
64598;SDS011;51008;51.504;11.548;2023-04-23T10:03:51;7.65;;;4.90;;
64598;SDS011;51008;51.504;11.548;2023-04-23T10:08:54;9.48;;;4.25;;
64598;SDS011;51008;51.504;11.548;2023-04-23T10:13:56;6.05;;;3.65;;
64598;SDS011;51008;51.504;11.548;2023-04-23T10:18:57;7.35;;;4.45;;
64598;SDS011;51008;51.504;11.548;2023-04-23T10:24:00;8.85;;;4.43;;
64598;SDS011;51008;51.504;11.548;2023-04-23T10:29:02;7.68;;;4.57;;
64598;SDS011;51008;51.504;11.548;2023-04-23T10:34:05;8.35;;;4.88;;
64598;SDS011;51008;51.504;11.548;2023-04-23T10:39:06;5.85;;;3.53;;
64598;SDS011;51008;51.504;11.548;2023-04-23T10:44:11;6.10;;;4.10;;
64598;SDS011;51008;51.504;11.548;2023-04-23T10:49:13;6.63;;;3.75;;
64598;SDS011;51008;51.504;11.548;2023-04-23T10:54:15;7.67;;;3.33;;
64598;SDS011;51008;51.504;11.548;2023-04-23T10:59:19;4.97;;;3.58;;
64598;SDS011;51008;51.504;11.548;2023-04-23T11:04:25;5.28;;;3.13;;
64598;SDS011;51008;51.504;11.548;2023-04-23T11:25:14;7.35;;;2.50;;
64598;SDS011;51008;51.504;11.548;2023-04-23T11:30:20;3.88;;;2.40;;
64598;SDS011;51008;51.504;11.548;2023-04-23T11:35:23;3.67;;;2.50;;
64598;SDS011;51008;51.504;11.548;2023-04-23T11:40:25;4.43;;;1.95;;
64598;SDS011;51008;51.504;11.548;2023-04-23T11:45:27;4.75;;;2.60;;
64598;SDS011;51008;51.504;11.548;2023-04-23T11:50:29;4.75;;;2.40;;
64598;SDS011;51008;51.504;11.548;2023-04-23T11:55:32;3.53;;;2.30;;
64598;SDS011;51008;51.504;11.548;2023-04-23T12:00:33;3.75;;;2.45;;
64598;SDS011;51008;51.504;11.548;2023-04-23T12:05:39;4.05;;;2.30;;
64598;SDS011;51008;51.504;11.548;2023-04-23T12:10:46;4.60;;;2.30;;
64598;SDS011;51008;51.504;11.548;2023-04-23T12:15:52;6.13;;;2.90;;
64598;SDS011;51008;51.504;11.548;2023-04-23T12:21:03;4.65;;;2.60;;
64598;SDS011;51008;51.504;11.548;2023-04-23T12:26:10;5.35;;;2.47;;
64598;SDS011;51008;51.504;11.548;2023-04-23T12:31:21;3.97;;;2.60;;
64598;SDS011;51008;51.504;11.548;2023-04-23T12:36:25;4.55;;;2.63;;
64598;SDS011;51008;51.504;11.548;2023-04-23T12:41:27;5.35;;;2.50;;
64598;SDS011;51008;51.504;11.548;2023-04-23T12:46:28;4.85;;;2.72;;
64598;SDS011;51008;51.504;11.548;2023-04-23T12:51:30;3.67;;;2.25;;
64598;SDS011;51008;51.504;11.548;2023-04-23T12:56:31;7.35;;;2.67;;
64598;SDS011;51008;51.504;11.548;2023-04-23T13:01:32;4.90;;;2.15;;
64598;SDS011;51008;51.504;11.548;2023-04-23T13:06:33;4.00;;;2.13;;
64598;SDS011;51008;51.504;11.548;2023-04-23T13:11:35;4.63;;;2.03;;
64598;SDS011;51008;51.504;11.548;2023-04-23T13:16:39;4.90;;;2.10;;
64598;SDS011;51008;51.504;11.548;2023-04-23T13:21:44;3.38;;;2.08;;
64598;SDS011;51008;51.504;11.548;2023-04-23T13:26:45;4.03;;;2.17;;
64598;SDS011;51008;51.504;11.548;2023-04-23T13:31:46;2.50;;;1.67;;
64598;SDS011;51008;51.504;11.548;2023-04-23T13:36:47;2.35;;;1.70;;
64598;SDS011;51008;51.504;11.548;2023-04-23T13:41:48;3.72;;;1.73;;
64598;SDS011;51008;51.504;11.548;2023-04-23T13:46:49;3.70;;;1.73;;
64598;SDS011;51008;51.504;11.548;2023-04-23T13:51:50;2.55;;;1.90;;
64598;SDS011;51008;51.504;11.548;2023-04-23T13:56:52;3.55;;;1.70;;
64598;SDS011;51008;51.504;11.548;2023-04-23T14:01:54;4.35;;;1.83;;
64598;SDS011;51008;51.504;11.548;2023-04-23T14:06:55;4.75;;;1.77;;
64598;SDS011;51008;51.504;11.548;2023-04-23T14:11:55;4.13;;;2.00;;
64598;SDS011;51008;51.504;11.548;2023-04-23T14:16:56;4.82;;;2.00;;
64598;SDS011;51008;51.504;11.548;2023-04-23T14:21:57;2.95;;;1.80;;
64598;SDS011;51008;51.504;11.548;2023-04-23T14:26:58;6.47;;;1.73;;
64598;SDS011;51008;51.504;11.548;2023-04-23T14:32:00;3.17;;;2.08;;
64598;SDS011;51008;51.504;11.548;2023-04-23T14:37:02;3.28;;;1.80;;
64598;SDS011;51008;51.504;11.548;2023-04-23T14:42:03;5.68;;;2.00;;
64598;SDS011;51008;51.504;11.548;2023-04-23T14:47:04;3.72;;;1.63;;
64598;SDS011;51008;51.504;11.548;2023-04-23T14:52:05;3.05;;;1.70;;
64598;SDS011;51008;51.504;11.548;2023-04-23T14:57:07;3.78;;;1.95;;
64598;SDS011;51008;51.504;11.548;2023-04-23T15:02:07;4.90;;;2.05;;
64598;SDS011;51008;51.504;11.548;2023-04-23T15:07:08;3.65;;;2.10;;
64598;SDS011;51008;51.504;11.548;2023-04-23T15:12:32;3.55;;;2.20;;
64598;SDS011;51008;51.504;11.548;2023-04-23T15:17:31;5.72;;;2.25;;
64598;SDS011;51008;51.504;11.548;2023-04-23T15:22:32;4.35;;;1.95;;
64598;SDS011;51008;51.504;11.548;2023-04-23T15:27:33;4.22;;;2.00;;
64598;SDS011;51008;51.504;11.548;2023-04-23T15:32:34;3.08;;;1.85;;
64598;SDS011;51008;51.504;11.548;2023-04-23T15:37:35;4.63;;;2.28;;
64598;SDS011;51008;51.504;11.548;2023-04-23T15:42:36;6.25;;;2.35;;
64598;SDS011;51008;51.504;11.548;2023-04-23T15:47:37;3.45;;;2.03;;
64598;SDS011;51008;51.504;11.548;2023-04-23T15:52:39;6.88;;;2.30;;
64598;SDS011;51008;51.504;11.548;2023-04-23T15:57:40;5.03;;;2.00;;
64598;SDS011;51008;51.504;11.548;2023-04-23T16:02:41;4.50;;;2.30;;
64598;SDS011;51008;51.504;11.548;2023-04-23T16:07:42;2.75;;;2.10;;
64598;SDS011;51008;51.504;11.548;2023-04-23T16:12:42;3.63;;;2.05;;
64598;SDS011;51008;51.504;11.548;2023-04-23T16:17:44;4.13;;;1.85;;
64598;SDS011;51008;51.504;11.548;2023-04-23T16:22:45;4.32;;;2.00;;
64598;SDS011;51008;51.504;11.548;2023-04-23T16:27:46;6.43;;;2.10;;
64598;SDS011;51008;51.504;11.548;2023-04-23T16:32:47;3.67;;;2.20;;
64598;SDS011;51008;51.504;11.548;2023-04-23T16:37:48;3.78;;;2.35;;
64598;SDS011;51008;51.504;11.548;2023-04-23T16:42:50;4.45;;;2.20;;
64598;SDS011;51008;51.504;11.548;2023-04-23T16:47:51;4.13;;;2.30;;
64598;SDS011;51008;51.504;11.548;2023-04-23T16:52:52;3.33;;;1.90;;
64598;SDS011;51008;51.504;11.548;2023-04-23T16:57:53;5.00;;;2.45;;
64598;SDS011;51008;51.504;11.548;2023-04-23T17:02:53;4.25;;;2.00;;
64598;SDS011;51008;51.504;11.548;2023-04-23T17:07:54;4.03;;;1.98;;
64598;SDS011;51008;51.504;11.548;2023-04-23T17:12:55;4.65;;;2.10;;
64598;SDS011;51008;51.504;11.548;2023-04-23T17:17:56;9.32;;;2.22;;
64598;SDS011;51008;51.504;11.548;2023-04-23T17:22:57;3.22;;;2.10;;
64598;SDS011;51008;51.504;11.548;2023-04-23T17:27:58;3.20;;;2.13;;
64598;SDS011;51008;51.504;11.548;2023-04-23T17:32:59;5.22;;;2.45;;
64598;SDS011;51008;51.504;11.548;2023-04-23T17:38:01;4.40;;;2.00;;
64598;SDS011;51008;51.504;11.548;2023-04-23T17:43:02;5.22;;;2.50;;
64598;SDS011;51008;51.504;11.548;2023-04-23T17:48:04;5.70;;;3.03;;
64598;SDS011;51008;51.504;11.548;2023-04-23T17:53:05;5.80;;;3.00;;
64598;SDS011;51008;51.504;11.548;2023-04-23T17:58:06;2.70;;;2.15;;
64598;SDS011;51008;51.504;11.548;2023-04-23T18:03:07;3.78;;;2.15;;
64598;SDS011;51008;51.504;11.548;2023-04-23T18:08:09;4.35;;;2.13;;
64598;SDS011;51008;51.504;11.548;2023-04-23T18:13:10;2.85;;;1.92;;
64598;SDS011;51008;51.504;11.548;2023-04-23T18:18:11;4.78;;;2.70;;
64598;SDS011;51008;51.504;11.548;2023-04-23T18:23:12;4.70;;;2.40;;
64598;SDS011;51008;51.504;11.548;2023-04-23T18:28:13;3.85;;;2.20;;
64598;SDS011;51008;51.504;11.548;2023-04-23T18:38:36;5.93;;;2.20;;
64598;SDS011;51008;51.504;11.548;2023-04-23T18:43:42;3.88;;;2.20;;
64598;SDS011;51008;51.504;11.548;2023-04-23T18:54:06;3.95;;;2.20;;
64598;SDS011;51008;51.504;11.548;2023-04-23T19:04:11;2.75;;;1.92;;
64598;SDS011;51008;51.504;11.548;2023-04-23T19:09:12;5.57;;;2.22;;
64598;SDS011;51008;51.504;11.548;2023-04-23T19:14:13;4.57;;;2.20;;
64598;SDS011;51008;51.504;11.548;2023-04-23T19:19:14;4.65;;;2.50;;
64598;SDS011;51008;51.504;11.548;2023-04-23T19:24:15;3.20;;;2.38;;
64598;SDS011;51008;51.504;11.548;2023-04-23T19:29:16;4.20;;;2.40;;
64598;SDS011;51008;51.504;11.548;2023-04-23T19:34:17;4.47;;;2.35;;
64598;SDS011;51008;51.504;11.548;2023-04-23T19:39:18;3.80;;;2.38;;
64598;SDS011;51008;51.504;11.548;2023-04-23T19:44:19;5.15;;;2.40;;
64598;SDS011;51008;51.504;11.548;2023-04-23T19:49:20;3.58;;;2.40;;
64598;SDS011;51008;51.504;11.548;2023-04-23T19:54:21;4.30;;;2.80;;
64598;SDS011;51008;51.504;11.548;2023-04-23T19:59:22;6.90;;;2.95;;
64598;SDS011;51008;51.504;11.548;2023-04-23T20:04:23;4.90;;;3.05;;
64598;SDS011;51008;51.504;11.548;2023-04-23T20:09:24;5.20;;;2.85;;
64598;SDS011;51008;51.504;11.548;2023-04-23T20:14:25;4.38;;;2.97;;
64598;SDS011;51008;51.504;11.548;2023-04-23T20:19:26;5.30;;;2.70;;
64598;SDS011;51008;51.504;11.548;2023-04-23T20:24:27;5.47;;;2.97;;
64598;SDS011;51008;51.504;11.548;2023-04-23T20:29:28;6.18;;;2.97;;
64598;SDS011;51008;51.504;11.548;2023-04-23T20:34:29;6.15;;;3.35;;
64598;SDS011;51008;51.504;11.548;2023-04-23T20:39:30;5.70;;;3.13;;
64598;SDS011;51008;51.504;11.548;2023-04-23T20:44:31;4.97;;;2.90;;
64598;SDS011;51008;51.504;11.548;2023-04-23T20:49:32;8.27;;;3.42;;
64598;SDS011;51008;51.504;11.548;2023-04-23T20:54:33;5.05;;;3.30;;
64598;SDS011;51008;51.504;11.548;2023-04-23T20:59:34;5.25;;;3.38;;
64598;SDS011;51008;51.504;11.548;2023-04-23T21:04:36;6.20;;;3.53;;
64598;SDS011;51008;51.504;11.548;2023-04-23T21:09:37;7.53;;;3.80;;
64598;SDS011;51008;51.504;11.548;2023-04-23T21:14:38;6.85;;;4.00;;
64598;SDS011;51008;51.504;11.548;2023-04-23T21:19:39;6.45;;;4.10;;
64598;SDS011;51008;51.504;11.548;2023-04-23T21:24:40;6.18;;;4.30;;
64598;SDS011;51008;51.504;11.548;2023-04-23T21:29:42;6.53;;;4.20;;
64598;SDS011;51008;51.504;11.548;2023-04-23T21:34:43;5.20;;;3.05;;
64598;SDS011;51008;51.504;11.548;2023-04-23T21:39:44;7.47;;;2.92;;
64598;SDS011;51008;51.504;11.548;2023-04-23T21:44:45;4.47;;;2.65;;
64598;SDS011;51008;51.504;11.548;2023-04-23T21:49:46;5.00;;;2.90;;
64598;SDS011;51008;51.504;11.548;2023-04-23T21:54:47;4.03;;;2.75;;
64598;SDS011;51008;51.504;11.548;2023-04-23T21:59:48;4.90;;;2.78;;
64598;SDS011;51008;51.504;11.548;2023-04-23T22:04:49;4.90;;;2.97;;
64598;SDS011;51008;51.504;11.548;2023-04-23T22:09:50;5.15;;;3.13;;
64598;SDS011;51008;51.504;11.548;2023-04-23T22:14:51;6.18;;;3.10;;
64598;SDS011;51008;51.504;11.548;2023-04-23T22:19:52;4.68;;;3.35;;
64598;SDS011;51008;51.504;11.548;2023-04-23T22:24:53;5.85;;;3.72;;
64598;SDS011;51008;51.504;11.548;2023-04-23T22:29:54;11.05;;;4.15;;
64598;SDS011;51008;51.504;11.548;2023-04-23T22:34:55;6.25;;;3.83;;
64598;SDS011;51008;51.504;11.548;2023-04-23T22:39:57;7.60;;;3.53;;
64598;SDS011;51008;51.504;11.548;2023-04-23T22:44:58;5.72;;;3.42;;
64598;SDS011;51008;51.504;11.548;2023-04-23T22:49:59;5.95;;;4.00;;
64598;SDS011;51008;51.504;11.548;2023-04-23T22:55:00;6.97;;;4.05;;
64598;SDS011;51008;51.504;11.548;2023-04-23T23:00:01;6.88;;;3.90;;
64598;SDS011;51008;51.504;11.548;2023-04-23T23:05:03;11.27;;;4.43;;
64598;SDS011;51008;51.504;11.548;2023-04-23T23:10:05;6.03;;;3.63;;
64598;SDS011;51008;51.504;11.548;2023-04-23T23:15:07;6.07;;;3.53;;
64598;SDS011;51008;51.504;11.548;2023-04-23T23:20:09;5.30;;;3.40;;
64598;SDS011;51008;51.504;11.548;2023-04-23T23:25:10;5.30;;;3.40;;
64598;SDS011;51008;51.504;11.548;2023-04-23T23:30:11;7.43;;;4.22;;
64598;SDS011;51008;51.504;11.548;2023-04-23T23:35:12;5.70;;;3.10;;
64598;SDS011;51008;51.504;11.548;2023-04-23T23:40:13;6.60;;;3.42;;
64598;SDS011;51008;51.504;11.548;2023-04-23T23:45:14;5.60;;;3.50;;
64598;SDS011;51008;51.504;11.548;2023-04-23T23:50:15;7.43;;;4.00;;
64598;SDS011;51008;51.504;11.548;2023-04-23T23:55:16;5.30;;;2.95;;
